Time;durP1;ratioP1;P1;durP2;ratioP2;P2;SDS_P1;SDS_P2;PMS_P1;PMS_P2;Temp;Humidity;BMP_temperature;BMP_pressure;BME280_temperature;BME280_humidity;BME280_pressure;Samples;Min_cycle;Max_cycle;Signal;HPM_P1;HPM_P2
2021/07/28 00:01:23;;;;;;;36.40;22.90;;;;;;;;;;5020061;28;20052;-66
2021/07/28 00:03:50;;;;;;;52.08;26.98;;;;;;;;;;5021371;28;20086;-66
2021/07/28 00:06:20;;;;;;;49.13;27.90;;;;;;;;;;5021546;28;20046;-66
2021/07/28 00:08:46;;;;;;;61.17;29.38;;;;;;;;;;5018625;28;20397;-66
2021/07/28 00:11:13;;;;;;;57.72;28.95;;;;;;;;;;5018056;28;20107;-66
2021/07/28 00:13:40;;;;;;;57.40;30.08;;;;;;;;;;5016230;28;20046;-66
2021/07/28 00:16:10;;;;;;;44.90;26.48;;;;;;;;;;5022358;28;20041;-66
2021/07/28 00:18:45;;;;;;;48.67;26.88;;;;;;;;;;5016609;28;20081;-66
2021/07/28 00:23:56;;;;;;;32.95;20.92;;;;;;;;;;5017200;28;20139;-66
2021/07/28 00:26:22;;;;;;;31.75;20.65;;;;;;;;;;5016099;28;20212;-66
2021/07/28 00:28:49;;;;;;;26.08;16.50;;;;;;;;;;5014199;28;20052;-67
2021/07/28 00:31:15;;;;;;;30.88;17.85;;;;;;;;;;5015161;28;20159;-66
2021/07/28 00:33:41;;;;;;;26.13;17.13;;;;;;;;;;5018112;28;20057;-66
2021/07/28 00:36:07;;;;;;;27.27;17.30;;;;;;;;;;5018235;28;20049;-66
2021/07/28 00:38:34;;;;;;;29.92;18.85;;;;;;;;;;5016151;28;20095;-67
2021/07/28 00:41:00;;;;;;;32.10;20.00;;;;;;;;;;5019778;28;20064;-66
2021/07/28 00:43:27;;;;;;;30.35;19.67;;;;;;;;;;5016770;28;20061;-66
2021/07/28 00:45:53;;;;;;;36.40;21.15;;;;;;;;;;5019762;28;20847;-66
2021/07/28 00:48:19;;;;;;;36.78;22.63;;;;;;;;;;5017372;28;21758;-66
2021/07/28 00:50:46;;;;;;;36.25;21.55;;;;;;;;;;5037458;28;20056;-66
2021/07/28 00:53:18;;;;;;;37.50;22.73;;;;;;;;;;5018312;28;20046;-66
2021/07/28 00:55:45;;;;;;;41.92;23.38;;;;;;;;;;5021276;28;20052;-66
2021/07/28 00:58:11;;;;;;;41.60;24.15;;;;;;;;;;5023082;28;20208;-66
2021/07/28 01:00:37;;;;;;;40.75;25.75;;;;;;;;;;5020967;28;20084;-66
2021/07/28 01:03:03;;;;;;;47.35;26.15;;;;;;;;;;5020159;28;20125;-66
2021/07/28 01:05:30;;;;;;;40.83;25.10;;;;;;;;;;5013414;28;20051;-66
2021/07/28 01:07:56;;;;;;;42.47;25.77;;;;;;;;;;5017893;28;20056;-66
2021/07/28 01:10:22;;;;;;;47.45;27.30;;;;;;;;;;5017768;28;20052;-66
2021/07/28 01:12:54;;;;;;;49.33;28.10;;;;;;;;;;5015319;28;20394;-66
2021/07/28 01:15:32;;;;;;;43.95;27.20;;;;;;;;;;5021871;28;20049;-67
2021/07/28 01:17:59;;;;;;;47.10;25.48;;;;;;;;;;5020234;28;20422;-66
2021/07/28 01:20:27;;;;;;;40.63;25.33;;;;;;;;;;5017120;28;20049;-66
2021/07/28 01:22:55;;;;;;;42.90;24.85;;;;;;;;;;5021551;28;20112;-66
2021/07/28 01:25:22;;;;;;;41.38;24.48;;;;;;;;;;5025561;28;20144;-66
2021/07/28 01:27:49;;;;;;;42.08;24.48;;;;;;;;;;5014783;28;20061;-67
2021/07/28 01:30:17;;;;;;;38.72;22.80;;;;;;;;;;5011923;28;20061;-66
2021/07/28 01:32:43;;;;;;;29.30;20.20;;;;;;;;;;5018967;28;20041;-66
2021/07/28 01:35:10;;;;;;;31.05;20.00;;;;;;;;;;5017473;28;20038;-66
2021/07/28 01:37:36;;;;;;;29.13;19.40;;;;;;;;;;5017608;28;20091;-67
2021/07/28 01:40:03;;;;;;;32.40;21.27;;;;;;;;;;5022938;28;20227;-66
2021/07/28 01:42:31;;;;;;;34.97;21.95;;;;;;;;;;5018434;28;20052;-66
2021/07/28 01:44:57;;;;;;;35.00;23.20;;;;;;;;;;5017387;28;20045;-66
2021/07/28 01:47:23;;;;;;;46.45;27.25;;;;;;;;;;5016321;28;20361;-66
2021/07/28 01:49:49;;;;;;;42.95;26.23;;;;;;;;;;5019341;28;20053;-67
2021/07/28 01:52:15;;;;;;;46.60;28.58;;;;;;;;;;5020014;28;20066;-66
2021/07/28 01:54:42;;;;;;;54.30;31.30;;;;;;;;;;5021178;28;20068;-66
2021/07/28 01:57:08;;;;;;;60.05;34.90;;;;;;;;;;5017199;28;20069;-66
2021/07/28 01:59:40;;;;;;;63.70;36.92;;;;;;;;;;5018160;28;20054;-66
2021/07/28 02:02:06;;;;;;;64.43;37.17;;;;;;;;;;5015777;28;20489;-67
2021/07/28 02:04:33;;;;;;;69.22;39.53;;;;;;;;;;5018810;28;20048;-67
2021/07/28 02:06:59;;;;;;;66.13;38.40;;;;;;;;;;5017851;28;20058;-66
2021/07/28 02:09:25;;;;;;;77.53;41.17;;;;;;;;;;5017105;28;20088;-66
2021/07/28 02:11:51;;;;;;;75.30;41.70;;;;;;;;;;5020173;28;20474;-67
2021/07/28 02:14:18;;;;;;;90.97;45.28;;;;;;;;;;5022162;28;20057;-66
2021/07/28 02:16:44;;;;;;;88.05;44.28;;;;;;;;;;5017160;28;20037;-66
2021/07/28 02:19:10;;;;;;;81.93;43.22;;;;;;;;;;5018508;28;20054;-66
2021/07/28 02:21:36;;;;;;;83.55;43.05;;;;;;;;;;5021435;28;21908;-67
2021/07/28 02:24:03;;;;;;;86.80;42.75;;;;;;;;;;5021029;28;20415;-66
2021/07/28 02:26:29;;;;;;;87.32;45.15;;;;;;;;;;5016840;28;20560;-66
2021/07/28 02:28:55;;;;;;;89.10;44.00;;;;;;;;;;5016908;28;20119;-66
2021/07/28 02:31:21;;;;;;;93.45;46.03;;;;;;;;;;5015370;28;20088;-66
2021/07/28 02:33:47;;;;;;;87.22;44.58;;;;;;;;;;5017034;28;20060;-66
2021/07/28 02:36:14;;;;;;;100.25;45.85;;;;;;;;;;5019644;28;20045;-66
2021/07/28 02:38:40;;;;;;;93.88;45.78;;;;;;;;;;5020112;28;20100;-66
2021/07/28 02:41:06;;;;;;;91.65;44.78;;;;;;;;;;5026419;28;20045;-66
2021/07/28 02:43:32;;;;;;;98.35;46.28;;;;;;;;;;5026307;28;20068;-66
2021/07/28 02:45:58;;;;;;;92.18;45.08;;;;;;;;;;5019965;28;20108;-67
2021/07/28 02:48:25;;;;;;;86.35;44.42;;;;;;;;;;5021996;28;20148;-67
2021/07/28 02:50:51;;;;;;;100.45;47.85;;;;;;;;;;5027473;28;20390;-66
2021/07/28 02:53:20;;;;;;;96.25;48.20;;;;;;;;;;5025693;28;20046;-66
2021/07/28 02:55:47;;;;;;;94.90;48.38;;;;;;;;;;5026041;28;20084;-67
2021/07/28 02:58:13;;;;;;;85.78;47.42;;;;;;;;;;5023141;28;20037;-67
2021/07/28 03:00:40;;;;;;;84.93;44.75;;;;;;;;;;5025593;28;20120;-66
2021/07/28 03:03:08;;;;;;;75.05;43.63;;;;;;;;;;5021766;28;20138;-66
2021/07/28 03:05:34;;;;;;;83.90;43.03;;;;;;;;;;5017631;28;20073;-66
2021/07/28 03:08:00;;;;;;;85.72;43.47;;;;;;;;;;5018571;28;20041;-66
2021/07/28 03:10:27;;;;;;;92.07;44.17;;;;;;;;;;5033678;28;20053;-67
2021/07/28 03:12:53;;;;;;;89.25;45.33;;;;;;;;;;5022791;28;20045;-67
2021/07/28 03:15:20;;;;;;;83.35;41.63;;;;;;;;;;5022186;28;20041;-66
2021/07/28 03:17:46;;;;;;;77.10;41.15;;;;;;;;;;5021635;28;20041;-66
2021/07/28 03:20:12;;;;;;;79.18;41.70;;;;;;;;;;5017253;28;20068;-66
2021/07/28 03:22:39;;;;;;;73.47;39.55;;;;;;;;;;5023363;28;20481;-66
2021/07/28 03:25:05;;;;;;;80.35;39.50;;;;;;;;;;5017994;28;20115;-67
2021/07/28 03:27:31;;;;;;;84.72;41.63;;;;;;;;;;5024294;28;20073;-67
2021/07/28 03:29:57;;;;;;;77.35;41.33;;;;;;;;;;5019640;28;20124;-66
2021/07/28 03:32:25;;;;;;;82.93;40.67;;;;;;;;;;5022363;28;20590;-67
2021/07/28 03:34:51;;;;;;;81.50;40.97;;;;;;;;;;5025553;28;20556;-66
2021/07/28 03:37:17;;;;;;;79.88;39.38;;;;;;;;;;5011946;28;20054;-67
2021/07/28 03:39:44;;;;;;;85.65;40.83;;;;;;;;;;5016946;28;20452;-66
2021/07/28 03:42:11;;;;;;;77.25;39.95;;;;;;;;;;5013672;28;20069;-67
2021/07/28 03:44:37;;;;;;;77.18;39.67;;;;;;;;;;5015348;28;20517;-67
2021/07/28 03:47:03;;;;;;;80.70;40.22;;;;;;;;;;5022240;28;20156;-66
2021/07/28 03:49:29;;;;;;;76.38;38.97;;;;;;;;;;5017260;28;20045;-66
2021/07/28 03:51:56;;;;;;;80.88;41.20;;;;;;;;;;5020894;28;20093;-67
2021/07/28 03:54:22;;;;;;;82.10;39.75;;;;;;;;;;5023206;28;20102;-66
2021/07/28 03:56:48;;;;;;;80.60;40.83;;;;;;;;;;5021486;28;20079;-66
2021/07/28 03:59:14;;;;;;;82.85;40.28;;;;;;;;;;5018287;28;20049;-67
2021/07/28 04:01:41;;;;;;;78.50;38.58;;;;;;;;;;5022428;28;20468;-67
2021/07/28 04:04:07;;;;;;;83.38;41.90;;;;;;;;;;5019526;28;20109;-67
2021/07/28 04:06:33;;;;;;;79.75;39.92;;;;;;;;;;5017435;28;20604;-66
2021/07/28 04:08:59;;;;;;;82.60;41.15;;;;;;;;;;5021756;28;20057;-66
2021/07/28 04:11:25;;;;;;;90.78;40.55;;;;;;;;;;5014229;28;20145;-66
2021/07/28 04:13:52;;;;;;;85.82;41.05;;;;;;;;;;5021557;28;20092;-66
2021/07/28 04:16:19;;;;;;;82.38;39.22;;;;;;;;;;5018413;28;20115;-67
2021/07/28 04:18:45;;;;;;;86.20;42.50;;;;;;;;;;5018943;28;20093;-66
2021/07/28 04:21:11;;;;;;;80.18;40.38;;;;;;;;;;5020732;28;20072;-66
2021/07/28 04:23:37;;;;;;;94.22;42.05;;;;;;;;;;5017841;28;20132;-66
2021/07/28 04:26:03;;;;;;;93.20;42.22;;;;;;;;;;5025653;28;20472;-66
2021/07/28 04:28:31;;;;;;;82.88;41.78;;;;;;;;;;5020256;28;20088;-67
2021/07/28 04:30:57;;;;;;;85.18;42.22;;;;;;;;;;5017658;28;20041;-66
2021/07/28 04:33:23;;;;;;;87.57;39.67;;;;;;;;;;5024607;28;20044;-66
2021/07/28 04:35:50;;;;;;;87.18;39.90;;;;;;;;;;5020194;28;20049;-66
2021/07/28 04:38:16;;;;;;;78.38;38.00;;;;;;;;;;5022332;28;20485;-67
2021/07/28 04:40:42;;;;;;;80.70;39.45;;;;;;;;;;5016901;28;20465;-67
2021/07/28 04:43:08;;;;;;;77.65;39.22;;;;;;;;;;5020399;28;20049;-66
2021/07/28 04:45:35;;;;;;;79.78;39.75;;;;;;;;;;5016072;28;20073;-67
2021/07/28 04:48:04;;;;;;;77.35;40.50;;;;;;;;;;5020109;28;20048;-66
2021/07/28 04:50:32;;;;;;;75.32;40.53;;;;;;;;;;5017284;28;20103;-66
2021/07/28 04:52:58;;;;;;;85.88;40.05;;;;;;;;;;5019835;28;20568;-67
2021/07/28 04:55:24;;;;;;;82.97;40.38;;;;;;;;;;5019786;28;20057;-66
2021/07/28 04:57:51;;;;;;;85.53;41.90;;;;;;;;;;5014711;28;20046;-66
2021/07/28 05:00:17;;;;;;;87.38;41.60;;;;;;;;;;5019268;28;20452;-66
2021/07/28 05:02:43;;;;;;;82.82;40.95;;;;;;;;;;5020532;28;20042;-66
2021/07/28 05:05:10;;;;;;;84.25;41.63;;;;;;;;;;5013692;28;20129;-67
2021/07/28 05:07:36;;;;;;;90.18;42.50;;;;;;;;;;5017222;28;20538;-67
2021/07/28 05:10:06;;;;;;;88.95;43.75;;;;;;;;;;5016669;28;20076;-66
2021/07/28 05:12:33;;;;;;;86.03;43.88;;;;;;;;;;5017524;28;20447;-66
2021/07/28 05:15:00;;;;;;;91.28;44.88;;;;;;;;;;5019379;28;20109;-66
2021/07/28 05:17:29;;;;;;;91.43;43.92;;;;;;;;;;5019534;28;20037;-66
2021/07/28 05:19:55;;;;;;;95.18;43.40;;;;;;;;;;5020097;28;20121;-66
2021/07/28 05:22:22;;;;;;;94.30;44.15;;;;;;;;;;5034384;28;20045;-66
2021/07/28 05:24:48;;;;;;;84.13;42.90;;;;;;;;;;5014064;28;20489;-66
2021/07/28 05:27:16;;;;;;;83.45;41.53;;;;;;;;;;5019543;28;20159;-67
2021/07/28 05:29:42;;;;;;;75.80;40.00;;;;;;;;;;5016202;28;20042;-66
2021/07/28 05:32:08;;;;;;;81.32;40.25;;;;;;;;;;5017559;28;20148;-66
2021/07/28 05:34:35;;;;;;;81.82;39.78;;;;;;;;;;5020130;28;20499;-66
2021/07/28 05:37:01;;;;;;;87.13;41.15;;;;;;;;;;5013101;28;20249;-66
2021/07/28 05:39:27;;;;;;;85.47;40.22;;;;;;;;;;5021175;28;20095;-66
2021/07/28 05:41:57;;;;;;;79.90;40.60;;;;;;;;;;5017072;28;20118;-66
2021/07/28 05:44:25;;;;;;;73.82;40.22;;;;;;;;;;5023919;28;20431;-66
2021/07/28 05:46:51;;;;;;;68.60;39.47;;;;;;;;;;5018760;28;20049;-66
2021/07/28 05:49:17;;;;;;;71.20;40.05;;;;;;;;;;5014592;28;20173;-66
2021/07/28 05:51:44;;;;;;;71.70;40.10;;;;;;;;;;5018799;28;20045;-67
2021/07/28 05:54:10;;;;;;;60.17;38.03;;;;;;;;;;5014263;28;20038;-67
2021/07/28 05:56:36;;;;;;;64.57;39.45;;;;;;;;;;5018528;28;20575;-67
2021/07/28 05:59:02;;;;;;;69.60;42.55;;;;;;;;;;5021690;28;20112;-67
2021/07/28 06:01:31;;;;;;;63.20;39.97;;;;;;;;;;5016917;28;20460;-66
2021/07/28 06:03:59;;;;;;;67.63;40.08;;;;;;;;;;5026840;28;20077;-67
2021/07/28 06:06:26;;;;;;;62.63;40.03;;;;;;;;;;5013712;28;20065;-67
2021/07/28 06:08:53;;;;;;;62.65;40.30;;;;;;;;;;5014290;28;20047;-67
2021/07/28 06:11:19;;;;;;;58.95;40.97;;;;;;;;;;5015064;28;20524;-67
2021/07/28 06:13:45;;;;;;;54.45;38.15;;;;;;;;;;5030903;28;20761;-67
2021/07/28 06:16:12;;;;;;;62.88;41.30;;;;;;;;;;5022444;28;20102;-67
2021/07/28 06:18:38;;;;;;;62.40;42.95;;;;;;;;;;5017160;28;20103;-67
2021/07/28 06:21:05;;;;;;;58.35;39.35;;;;;;;;;;5023416;28;20088;-67
2021/07/28 06:23:31;;;;;;;55.38;39.45;;;;;;;;;;5017214;28;20100;-67
2021/07/28 06:25:58;;;;;;;60.70;40.55;;;;;;;;;;5025137;28;20045;-67
2021/07/28 06:28:26;;;;;;;54.05;38.40;;;;;;;;;;5028623;28;20033;-67
2021/07/28 06:30:53;;;;;;;52.85;37.10;;;;;;;;;;5026225;28;20059;-67
2021/07/28 06:33:19;;;;;;;45.05;36.53;;;;;;;;;;5030627;28;20112;-67
2021/07/28 06:35:47;;;;;;;44.53;34.17;;;;;;;;;;5018476;28;20053;-67
2021/07/28 06:38:13;;;;;;;42.67;33.85;;;;;;;;;;5019065;28;20136;-66
2021/07/28 06:40:39;;;;;;;45.53;34.75;;;;;;;;;;5027349;28;20104;-66
2021/07/28 06:43:06;;;;;;;42.05;33.08;;;;;;;;;;5017532;28;20045;-66
2021/07/28 06:45:32;;;;;;;42.13;34.45;;;;;;;;;;5022362;28;20046;-66
2021/07/28 06:47:58;;;;;;;39.22;31.63;;;;;;;;;;5022916;28;20042;-66
2021/07/28 06:50:25;;;;;;;40.42;31.65;;;;;;;;;;5028430;28;20388;-66
2021/07/28 06:52:51;;;;;;;43.13;32.35;;;;;;;;;;5021811;28;20042;-66
2021/07/28 06:55:17;;;;;;;39.50;31.30;;;;;;;;;;5023138;28;20080;-67
2021/07/28 06:57:44;;;;;;;39.88;31.83;;;;;;;;;;5018772;28;20045;-68
2021/07/28 07:00:10;;;;;;;41.88;30.90;;;;;;;;;;5019116;28;20524;-68
2021/07/28 07:02:37;;;;;;;36.45;29.83;;;;;;;;;;5030902;28;20052;-68
2021/07/28 07:05:04;;;;;;;39.17;28.73;;;;;;;;;;5022796;28;20052;-68
2021/07/28 07:07:30;;;;;;;50.08;30.65;;;;;;;;;;5023778;28;20069;-67
2021/07/28 07:09:57;;;;;;;35.35;28.30;;;;;;;;;;5024519;28;20048;-66
2021/07/28 07:12:23;;;;;;;34.03;28.48;;;;;;;;;;5030417;28;20464;-66
2021/07/28 07:14:50;;;;;;;35.05;26.63;;;;;;;;;;5026427;28;20090;-66
2021/07/28 07:17:16;;;;;;;31.23;26.10;;;;;;;;;;5017009;28;20056;-66
2021/07/28 07:19:43;;;;;;;29.40;24.85;;;;;;;;;;5018109;28;20418;-66
2021/07/28 07:22:10;;;;;;;35.42;27.48;;;;;;;;;;5016856;28;20497;-66
2021/07/28 07:24:36;;;;;;;36.10;27.15;;;;;;;;;;5023744;28;20462;-66
2021/07/28 07:27:03;;;;;;;38.45;28.50;;;;;;;;;;5015503;28;20046;-66
2021/07/28 07:29:29;;;;;;;37.65;28.77;;;;;;;;;;5020537;28;20077;-66
2021/07/28 07:31:55;;;;;;;39.30;30.65;;;;;;;;;;5015415;28;20128;-66
2021/07/28 07:34:22;;;;;;;43.63;32.58;;;;;;;;;;5017817;28;20438;-66
2021/07/28 07:36:49;;;;;;;47.45;34.67;;;;;;;;;;5023641;28;20076;-66
2021/07/28 07:39:15;;;;;;;43.55;32.15;;;;;;;;;;5021800;28;20041;-70
2021/07/28 07:41:42;;;;;;;43.42;32.15;;;;;;;;;;5024399;28;20045;-95
2021/07/28 07:44:09;;;;;;;46.40;31.52;;;;;;;;;;5019986;28;20048;-83
2021/07/28 07:46:35;;;;;;;43.55;31.45;;;;;;;;;;5023592;28;20065;-69
2021/07/28 07:49:01;;;;;;;59.40;32.63;;;;;;;;;;5023453;28;20049;-69
2021/07/28 07:51:28;;;;;;;40.03;30.42;;;;;;;;;;5022001;28;20045;-69
2021/07/28 07:53:55;;;;;;;39.63;31.55;;;;;;;;;;5013496;28;20064;-69
2021/07/28 07:56:21;;;;;;;38.55;28.75;;;;;;;;;;5020740;28;20493;-69
2021/07/28 07:58:47;;;;;;;32.67;25.23;;;;;;;;;;5027022;28;20069;-69
2021/07/28 08:01:13;;;;;;;28.52;24.60;;;;;;;;;;5016332;28;20110;-69
2021/07/28 08:03:40;;;;;;;30.45;24.60;;;;;;;;;;5018078;28;20435;-69
2021/07/28 08:06:07;;;;;;;32.08;25.38;;;;;;;;;;5027325;28;20090;-69
2021/07/28 08:08:34;;;;;;;30.65;23.23;;;;;;;;;;5019849;28;20061;-69
2021/07/28 08:11:00;;;;;;;25.65;21.10;;;;;;;;;;5024357;28;20431;-69
2021/07/28 08:13:27;;;;;;;28.65;20.70;;;;;;;;;;5020609;28;20354;-69
2021/07/28 08:15:54;;;;;;;26.35;21.20;;;;;;;;;;5020723;28;20148;-69
2021/07/28 08:18:20;;;;;;;21.98;17.42;;;;;;;;;;5022404;28;20460;-69
2021/07/28 08:20:47;;;;;;;24.15;20.05;;;;;;;;;;5024061;28;20049;-69
2021/07/28 08:23:14;;;;;;;20.92;18.20;;;;;;;;;;5020223;28;20066;-69
2021/07/28 08:25:41;;;;;;;24.55;20.83;;;;;;;;;;5017129;28;20061;-69
2021/07/28 08:28:07;;;;;;;22.60;20.15;;;;;;;;;;5018741;28;20045;-69
2021/07/28 08:30:33;;;;;;;18.75;14.43;;;;;;;;;;5019977;28;20072;-69
2021/07/28 08:32:59;;;;;;;19.80;17.17;;;;;;;;;;5026177;28;20061;-69
2021/07/28 08:35:26;;;;;;;25.40;19.50;;;;;;;;;;5019510;28;20065;-69
2021/07/28 08:37:52;;;;;;;23.45;18.13;;;;;;;;;;5019110;28;20108;-69
2021/07/28 08:40:18;;;;;;;22.52;18.42;;;;;;;;;;5014253;28;20073;-69
2021/07/28 08:42:46;;;;;;;19.20;15.55;;;;;;;;;;5017463;28;20069;-69
2021/07/28 08:45:14;;;;;;;17.15;12.15;;;;;;;;;;5023337;28;20584;-70
2021/07/28 08:47:41;;;;;;;17.05;14.52;;;;;;;;;;5014338;28;20127;-69
2021/07/28 08:50:08;;;;;;;19.58;15.00;;;;;;;;;;5014896;28;20068;-70
2021/07/28 08:52:35;;;;;;;22.60;16.15;;;;;;;;;;5013169;28;20117;-69
2021/07/28 08:55:02;;;;;;;19.45;16.65;;;;;;;;;;5012845;28;20470;-69
2021/07/28 08:57:29;;;;;;;18.85;13.27;;;;;;;;;;5011651;28;20042;-69
2021/07/28 08:59:57;;;;;;;20.08;13.90;;;;;;;;;;5022502;28;20048;-69
2021/07/28 09:02:23;;;;;;;19.92;14.38;;;;;;;;;;5016112;28;20119;-69
2021/07/28 09:04:49;;;;;;;20.08;14.63;;;;;;;;;;5012100;28;20378;-69
2021/07/28 09:07:16;;;;;;;22.58;12.73;;;;;;;;;;5013301;28;20050;-69
2021/07/28 09:09:52;;;;;;;15.23;9.85;;;;;;;;;;5012868;28;20089;-69
2021/07/28 09:12:19;;;;;;;17.92;10.10;;;;;;;;;;5015488;28;20125;-69
2021/07/28 09:14:53;;;;;;;15.15;11.57;;;;;;;;;;5012538;28;20038;-69
2021/07/28 09:17:23;;;;;;;18.58;11.18;;;;;;;;;;5014628;28;20038;-69
2021/07/28 09:19:49;;;;;;;14.20;9.45;;;;;;;;;;5015178;28;20457;-69
2021/07/28 09:22:19;;;;;;;11.50;9.07;;;;;;;;;;5015098;28;21415;-69
2021/07/28 09:24:50;;;;;;;15.68;9.18;;;;;;;;;;5014759;28;20060;-69
2021/07/28 09:27:46;;;;;;;12.60;8.10;;;;;;;;;;5016349;28;20465;-69
2021/07/28 09:30:22;;;;;;;11.77;7.45;;;;;;;;;;5014665;28;20482;-69
2021/07/28 09:33:02;;;;;;;12.30;8.00;;;;;;;;;;5020749;28;20070;-69
2021/07/28 09:35:48;;;;;;;15.18;8.82;;;;;;;;;;5018714;28;20041;-69
2021/07/28 09:38:31;;;;;;;12.93;8.38;;;;;;;;;;5015973;28;20042;-69
2021/07/28 09:41:12;;;;;;;11.68;7.82;;;;;;;;;;5021101;28;20044;-69
2021/07/28 09:43:43;;;;;;;14.13;8.65;;;;;;;;;;5021786;28;20477;-69
2021/07/28 09:46:21;;;;;;;13.20;7.63;;;;;;;;;;5040832;28;20045;-75
2021/07/28 09:48:47;;;;;;;15.85;8.63;;;;;;;;;;5024407;28;20452;-69
2021/07/28 09:51:26;;;;;;;13.52;10.40;;;;;;;;;;5019909;28;20378;-69
2021/07/28 09:53:53;;;;;;;16.65;10.50;;;;;;;;;;5022224;28;20045;-69
2021/07/28 09:56:27;;;;;;;13.85;10.38;;;;;;;;;;5023675;28;20546;-69
2021/07/28 09:58:54;;;;;;;13.98;10.13;;;;;;;;;;5021394;28;20042;-69
2021/07/28 10:01:20;;;;;;;16.17;10.77;;;;;;;;;;5018626;28;20421;-69
2021/07/28 10:03:47;;;;;;;12.77;10.10;;;;;;;;;;5017867;28;20413;-69
2021/07/28 10:06:14;;;;;;;14.75;10.95;;;;;;;;;;5017439;28;20054;-69
2021/07/28 10:08:41;;;;;;;13.88;10.75;;;;;;;;;;5018022;28;20125;-69
2021/07/28 10:11:07;;;;;;;19.40;11.27;;;;;;;;;;5014915;28;20482;-68
2021/07/28 10:13:34;;;;;;;15.57;10.75;;;;;;;;;;5019999;28;20451;-70
2021/07/28 10:16:00;;;;;;;17.77;10.38;;;;;;;;;;5016760;28;20054;-68
2021/07/28 10:18:26;;;;;;;13.20;9.20;;;;;;;;;;5016802;28;20068;-68
2021/07/28 10:20:52;;;;;;;18.65;10.07;;;;;;;;;;5019815;28;20071;-68
2021/07/28 10:23:19;;;;;;;14.68;9.35;;;;;;;;;;5043168;28;20093;-68
2021/07/28 10:25:45;;;;;;;12.52;8.43;;;;;;;;;;5021430;28;20083;-69
2021/07/28 10:28:16;;;;;;;16.23;9.45;;;;;;;;;;5027521;28;20054;-69
2021/07/28 10:30:45;;;;;;;12.20;8.05;;;;;;;;;;5027744;28;20042;-69
2021/07/28 10:33:24;;;;;;;11.35;8.43;;;;;;;;;;5024416;28;20069;-69
2021/07/28 10:35:50;;;;;;;13.13;9.85;;;;;;;;;;5018251;28;20041;-69
2021/07/28 10:38:22;;;;;;;12.45;8.30;;;;;;;;;;5017428;28;20095;-69
2021/07/28 10:40:50;;;;;;;11.77;9.15;;;;;;;;;;5016700;28;20049;-68
2021/07/28 10:43:16;;;;;;;11.65;9.10;;;;;;;;;;5019668;28;20092;-69
2021/07/28 10:45:54;;;;;;;10.13;8.43;;;;;;;;;;5025262;28;20053;-69
2021/07/28 10:48:39;;;;;;;14.75;8.18;;;;;;;;;;5027980;28;20052;-69
2021/07/28 10:51:05;;;;;;;17.23;9.40;;;;;;;;;;5025632;28;20063;-69
2021/07/28 10:53:46;;;;;;;18.27;9.07;;;;;;;;;;5022814;28;20054;-70
2021/07/28 10:56:12;;;;;;;14.95;9.95;;;;;;;;;;5023133;28;20067;-69
2021/07/28 10:58:38;;;;;;;16.85;8.95;;;;;;;;;;5033483;28;20042;-70
2021/07/28 11:01:04;;;;;;;14.88;9.18;;;;;;;;;;5024274;28;20053;-69
2021/07/28 11:03:31;;;;;;;18.80;8.57;;;;;;;;;;5023754;28;20092;-70
2021/07/28 11:06:13;;;;;;;12.75;7.97;;;;;;;;;;5025300;28;20103;-69
2021/07/28 11:08:40;;;;;;;11.75;7.80;;;;;;;;;;5023686;28;20049;-69
2021/07/28 11:11:07;;;;;;;13.52;7.32;;;;;;;;;;5028125;28;20049;-70
2021/07/28 11:13:34;;;;;;;12.27;7.20;;;;;;;;;;5024545;28;20140;-69
2021/07/28 11:16:01;;;;;;;10.48;6.82;;;;;;;;;;5023614;28;20111;-69
2021/07/28 11:18:35;;;;;;;26.05;9.50;;;;;;;;;;5023357;28;20049;-69
2021/07/28 11:21:08;;;;;;;10.35;7.85;;;;;;;;;;5024508;28;20446;-69
2021/07/28 11:23:35;;;;;;;12.15;7.25;;;;;;;;;;5025594;28;20037;-69
2021/07/28 11:26:02;;;;;;;10.18;7.15;;;;;;;;;;5026432;28;20124;-69
2021/07/28 11:28:28;;;;;;;12.15;6.80;;;;;;;;;;5024763;28;20049;-69
2021/07/28 11:30:56;;;;;;;9.88;7.10;;;;;;;;;;5022887;28;20041;-69
2021/07/28 11:33:22;;;;;;;9.27;6.90;;;;;;;;;;5027389;28;20049;-70
2021/07/28 11:35:50;;;;;;;12.38;7.55;;;;;;;;;;5021038;28;20789;-70
2021/07/28 11:38:17;;;;;;;9.88;5.35;;;;;;;;;;5024865;28;20136;-70
2021/07/28 11:40:44;;;;;;;6.28;4.70;;;;;;;;;;5017927;28;20034;-70
2021/07/28 11:43:20;;;;;;;8.70;5.90;;;;;;;;;;5029138;28;20045;-70
2021/07/28 11:45:46;;;;;;;13.73;6.60;;;;;;;;;;5021618;28;20053;-70
2021/07/28 11:48:28;;;;;;;10.05;7.43;;;;;;;;;;5022203;28;20080;-70
2021/07/28 11:50:54;;;;;;;11.02;8.52;;;;;;;;;;5024710;28;20116;-69
2021/07/28 11:53:25;;;;;;;12.82;8.65;;;;;;;;;;5022231;28;20063;-70
2021/07/28 11:55:52;;;;;;;13.20;8.70;;;;;;;;;;5023743;28;20219;-70
2021/07/28 11:58:18;;;;;;;10.20;8.85;;;;;;;;;;5021638;28;20157;-70
2021/07/28 12:00:47;;;;;;;14.25;10.50;;;;;;;;;;5017182;28;20046;-69
2021/07/28 12:03:24;;;;;;;17.23;12.35;;;;;;;;;;5020033;28;20041;-70
2021/07/28 12:06:04;;;;;;;15.98;13.65;;;;;;;;;;5015747;28;20830;-69
2021/07/28 12:08:30;;;;;;;19.98;15.48;;;;;;;;;;5025337;28;20057;-70
2021/07/28 12:11:02;;;;;;;23.98;17.90;;;;;;;;;;5024598;28;20072;-69
2021/07/28 12:13:39;;;;;;;24.73;18.38;;;;;;;;;;5021222;28;20045;-69
2021/07/28 12:16:05;;;;;;;22.33;17.65;;;;;;;;;;5023858;28;20327;-69
2021/07/28 12:18:41;;;;;;;29.15;18.85;;;;;;;;;;5022327;28;20535;-69
2021/07/28 12:21:08;;;;;;;35.05;23.23;;;;;;;;;;5021743;28;20157;-69
2021/07/28 12:23:35;;;;;;;31.88;24.27;;;;;;;;;;5019434;28;20072;-69
2021/07/28 12:26:01;;;;;;;36.13;26.02;;;;;;;;;;5024546;28;20113;-69
2021/07/28 12:28:46;;;;;;;33.90;24.20;;;;;;;;;;5018746;28;20046;-69
2021/07/28 12:31:25;;;;;;;33.55;25.08;;;;;;;;;;5028593;28;20141;-69
2021/07/28 12:33:52;;;;;;;33.72;24.70;;;;;;;;;;5029875;28;20047;-69
2021/07/28 12:36:26;;;;;;;35.20;26.15;;;;;;;;;;5023089;28;20136;-69
2021/07/28 12:38:53;;;;;;;34.95;24.13;;;;;;;;;;5025334;28;20042;-69
2021/07/28 12:41:19;;;;;;;33.03;24.83;;;;;;;;;;5023089;28;20128;-69
2021/07/28 12:43:45;;;;;;;28.67;24.08;;;;;;;;;;5022579;28;20079;-69
2021/07/28 12:46:12;;;;;;;39.40;26.88;;;;;;;;;;5020630;28;20147;-69
2021/07/28 12:48:41;;;;;;;45.38;29.63;;;;;;;;;;5021602;28;20073;-69
2021/07/28 12:51:08;;;;;;;45.28;31.23;;;;;;;;;;5020543;28;20447;-69
2021/07/28 12:53:35;;;;;;;42.70;30.13;;;;;;;;;;5023485;28;20119;-69
2021/07/28 12:56:01;;;;;;;26.67;20.17;;;;;;;;;;5020496;28;20244;-70
2021/07/28 12:58:27;;;;;;;32.72;21.60;;;;;;;;;;5019963;28;20065;-69
2021/07/28 13:00:55;;;;;;;36.38;24.30;;;;;;;;;;5021597;28;20072;-69
2021/07/28 13:03:23;;;;;;;35.92;23.33;;;;;;;;;;5023124;28;20053;-70
2021/07/28 13:05:52;;;;;;;44.20;23.83;;;;;;;;;;5020431;28;20064;-69
2021/07/28 13:08:18;;;;;;;23.17;17.50;;;;;;;;;;5020095;28;20120;-70
2021/07/28 13:10:46;;;;;;;26.70;15.95;;;;;;;;;;5022893;28;20045;-69
2021/07/28 13:13:12;;;;;;;23.48;15.63;;;;;;;;;;5018120;28;20118;-70
2021/07/28 13:15:41;;;;;;;20.00;13.88;;;;;;;;;;5024526;28;20045;-69
2021/07/28 13:18:07;;;;;;;19.92;12.48;;;;;;;;;;5022855;28;20084;-70
2021/07/28 13:20:34;;;;;;;21.42;13.43;;;;;;;;;;5020477;28;20125;-70
2021/07/28 13:23:00;;;;;;;25.23;14.50;;;;;;;;;;5023430;28;20132;-70
2021/07/28 13:25:27;;;;;;;27.30;14.95;;;;;;;;;;5019002;28;20481;-70
2021/07/28 13:27:53;;;;;;;22.45;15.20;;;;;;;;;;5025939;28;20038;-70
2021/07/28 13:30:20;;;;;;;28.02;14.50;;;;;;;;;;5017832;28;20069;-70
2021/07/28 13:32:46;;;;;;;26.10;12.48;;;;;;;;;;5022043;28;20046;-70
2021/07/28 13:35:12;;;;;;;21.77;14.07;;;;;;;;;;5024219;28;20053;-70
2021/07/28 13:37:39;;;;;;;22.10;13.85;;;;;;;;;;5016354;28;20104;-70
2021/07/28 13:40:09;;;;;;;20.20;14.63;;;;;;;;;;5015180;28;20038;-71
2021/07/28 13:42:36;;;;;;;24.55;13.20;;;;;;;;;;5040487;28;20461;-70
2021/07/28 13:45:03;;;;;;;17.45;12.75;;;;;;;;;;5022696;28;20046;-70
2021/07/28 13:47:29;;;;;;;22.35;14.48;;;;;;;;;;5021746;28;20042;-70
2021/07/28 13:49:55;;;;;;;19.33;12.27;;;;;;;;;;5018525;28;20049;-70
2021/07/28 13:52:21;;;;;;;20.88;15.70;;;;;;;;;;5021892;28;20131;-70
2021/07/28 13:54:48;;;;;;;19.23;12.70;;;;;;;;;;5022881;28;20076;-70
2021/07/28 13:57:15;;;;;;;16.88;11.15;;;;;;;;;;5014256;28;20103;-70
2021/07/28 13:59:42;;;;;;;18.27;9.70;;;;;;;;;;5024393;28;20162;-70
2021/07/28 14:02:08;;;;;;;13.45;9.52;;;;;;;;;;5024123;28;20037;-70
2021/07/28 14:04:35;;;;;;;15.32;11.15;;;;;;;;;;5019285;28;20121;-70
2021/07/28 14:07:01;;;;;;;21.55;13.20;;;;;;;;;;5021492;28;20491;-70
2021/07/28 14:09:27;;;;;;;23.23;14.75;;;;;;;;;;5025362;28;20437;-70
2021/07/28 14:11:54;;;;;;;23.63;16.02;;;;;;;;;;5020620;28;20054;-70
2021/07/28 14:14:20;;;;;;;28.52;18.17;;;;;;;;;;5020951;28;20050;-70
2021/07/28 14:16:47;;;;;;;26.98;18.05;;;;;;;;;;5018076;28;20417;-70
2021/07/28 14:19:17;;;;;;;28.17;17.33;;;;;;;;;;5023086;28;20049;-70
2021/07/28 14:21:44;;;;;;;27.30;13.98;;;;;;;;;;5021166;28;20141;-70
2021/07/28 14:24:11;;;;;;;23.33;13.18;;;;;;;;;;5022445;28;20045;-70